Nearby METAR Reports

 

KBJC - Broomfield/Jeffc, Colorado, USA
Distance from station: NNW 11mi, 17km
Updated: 07/18/2018 2:12am
Clear
Clear
 Wind from WSW
Wind: WSW 9 mph , 15 km/h
Temperature: 63°F , 17°C
Dew Point: 57°F , 14°C
Humidity: 83%
Barometer: 30.16 inHg , 1021.3 hPa
Clouds: Clear
Visibility: 10 miles , 16 km
2018/07/18 08:12 KBJC 180812Z AUTO 25008KT 10SM CLR 17/14 A3016 RMK AO2
KBKF - Buckley Angb/Den, Colorado, USA
Distance from station: E 16mi, 25km
Updated: 07/18/2018 1:58am
Partly cloudy
Partly cloudy
 Wind from S
Wind: S 18 mph , 30 km/h
Temperature: 68°F , 20°C
Dew Point: 54°F , 12°C
Humidity: 60%
Barometer: 30.16 inHg , 1021.3 hPa
Clouds: Partly cloudy
Visibility: 10 miles , 16 km
Cloud details: Partly cloudy 22000 ft
2018/07/18 07:58 KBKF 180758Z 19016KT 10SM SCT220 20/12 A3016 RMK AO2A PK WND 19031/10 SLP132 T01970115
 
KAPA - Denver/Arapahoe, Colorado, USA
Distance from station: SE 16mi, 26km
Updated: 07/18/2018 1:53am
Partly cloudy
Partly cloudy
 Wind from S
Wind: S 15 mph , 24 km/h
Temperature: 66°F , 19°C
Dew Point: 52°F , 11°C
Humidity: 60%
Barometer: 30.19 inHg , 1022.4 hPa
Clouds: Partly cloudy
Visibility: 10 miles , 16 km
Cloud details: Partly cloudy 22000 ft
2018/07/18 07:53 KAPA 180753Z 17013KT 10SM SCT220 19/11 A3019 RMK AO2 SLP148 T01890111
KEIK - Erie Muni, Colorado, USA
Distance from station: N 18mi, 29km
Updated: 07/18/2018 2:18am
Clear
Clear
 Wind from calm
Wind: Calm
Temperature: 63°F , 17°C
Dew Point: 57°F , 14°C
Humidity: 83%
Barometer: 30.18 inHg , 1022 hPa
Clouds: Clear
Visibility: 10 miles , 16 km
2018/07/18 08:18 KEIK 180818Z AUTO 00000KT 10SM CLR 17/14 A3018 RMK AO2 T01740141
 
KBDU - Boulder Muni, Colorado, USA
Distance from station: NNW 22mi, 35km
Updated: 07/18/2018 2:12am
Clear
Clear
 Wind from WNW
Wind: WNW 5 mph , 7 km/h
Temperature: 66°F , 19°C
Dew Point: 61°F , 16°C
Humidity: 83%
Barometer: 30.14 inHg , 1020.7 hPa
Clouds: Clear
Visibility: 10 miles , 16 km
2018/07/18 08:12 KBDU 180812Z AUTO 30004KT 10SM CLR 19/16 A3014 RMK AO2
KDEN - Denver (dia), Colorado, USA
Distance from station: ENE 22mi, 35km
Updated: 07/18/2018 1:53am
Mostly cloudy
Mostly cloudy
 Wind from SSW
Wind: SSW 22 mph , 35 km/h
Temperature: 70°F , 21°C
Dew Point: 52°F , 11°C
Humidity: 53%
Barometer: 30.13 inHg , 1020.3 hPa
Clouds: Mostly cloudy
Visibility: 10 miles , 16 km
Cloud details: Mostly cloudy 22000 ft
2018/07/18 07:53 KDEN 180753Z 20019KT 10SM BKN220 21/11 A3013 RMK AO2 PK WND 20027/0742 SLP117 T02060111
 
KFTG - Denver F. Range, Colorado, USA
Distance from station: E 26mi, 42km
Updated: 07/18/2018 2:12am
Clear
Clear
 Wind from S
Wind: S 15 mph , 24 km/h, Gust: 28 mph , 44 km/h
Temperature: 70°F , 21°C
Dew Point: 54°F , 12°C
Humidity: 57%
Barometer: 30.15 inHg , 1021 hPa
Clouds: Clear
Visibility: 10 miles , 16 km
2018/07/18 08:12 KFTG 180812Z AUTO 19013G24KT 10SM CLR 21/12 A3015 RMK AO2 T02110122
KLMO - Longmont/Vbrand, Colorado, USA
Distance from station: NNW 29mi, 47km
Updated: 07/18/2018 2:15am
Clear
Clear
 Wind from calm
Wind: Calm
Temperature: 66°F , 19°C
Dew Point: 61°F , 16°C
Humidity: 83%
Barometer: 30.15 inHg , 1021 hPa
Clouds: Clear
Visibility: 7 miles , 11 km
2018/07/18 08:15 KLMO 180815Z AUTO 00000KT 7SM CLR 19/16 A3015 RMK AO2 T01860156
 
K0CO - Berthoud Pass, Colorado, USA
Distance from station: W 39mi, 62km
Updated: 07/18/2018 2:12am
Clear
Clear
 Wind from NW
Wind: NW 29 mph , 46 km/h, Gust: 40 mph , 65 km/h
Temperature: 46°F , 8°C
Wind Chill: 37°F , 3°C
Dew Point: 32°F , 0°C
Humidity: 57%
Barometer: 30.71 inHg , 1040 hPa
Clouds: Clear
Visibility: 10 miles , 16 km
2018/07/18 08:12 K0CO 180812Z AUTO 31025G35KT 10SM CLR 08/00 A3071 RMK AO2
KMNH - Monument/Elbert, Colorado, USA
Distance from station: SSE 43mi, 68km
Updated: 07/18/2018 2:12am
Clear
Clear
 Wind from S
Wind: S 13 mph , 20 km/h, Gust: 17 mph , 28 km/h
Temperature: 55°F , 13°C
Dew Point: 52°F , 11°C
Humidity: 88%
Barometer: 30.33 inHg , 1027.1 hPa
Clouds: Clear
Visibility: 10 miles , 16 km
2018/07/18 08:12 KMNH 180812Z AUTO 18011G15KT 10SM CLR 13/11 A3033 RMK AO2
 
KFNL - Ft Collins/Lovel, Colorado, USA
Distance from station: N 48mi, 78km
Updated: 07/18/2018 1:56am
Clear
Clear
 Wind from N
Wind: N 10 mph , 17 km/h
Temperature: 64°F , 18°C
Dew Point: 61°F , 16°C
Humidity: 88%
Barometer: 30.15 inHg , 1021 hPa
Clouds: Clear
Visibility: 10 miles , 16 km
2018/07/18 07:56 KFNL 180756Z AUTO 35009KT 10SM CLR 18/16 A3015 RMK AO2 SLP148 T01780161